sensor_id;sensor_type;location;lat;lon;timestamp;pressure;altitude;pressure_sealevel;temperature;humidity
46129;BME280;31860;45.186;5.790;2023-09-19T00:02:20;99233.63;;;21.44;100.00
46129;BME280;31860;45.186;5.790;2023-09-19T00:04:45;99239.81;;;21.44;100.00
46129;BME280;31860;45.186;5.790;2023-09-19T00:07:10;99231.84;;;21.44;100.00
46129;BME280;31860;45.186;5.790;2023-09-19T00:09:36;99226.44;;;21.46;100.00
46129;BME280;31860;45.186;5.790;2023-09-19T00:12:05;99226.53;;;21.44;100.00
46129;BME280;31860;45.186;5.790;2023-09-19T00:14:31;99231.84;;;21.44;100.00
46129;BME280;31860;45.186;5.790;2023-09-19T00:16:59;99223.13;;;21.41;100.00
46129;BME280;31860;45.186;5.790;2023-09-19T00:19:26;99223.13;;;21.41;100.00
46129;BME280;31860;45.186;5.790;2023-09-19T00:21:51;99224.13;;;21.38;100.00
46129;BME280;31860;45.186;5.790;2023-09-19T00:24:18;99224.13;;;21.38;100.00
46129;BME280;31860;45.186;5.790;2023-09-19T00:26:43;99224.13;;;21.38;100.00
46129;BME280;31860;45.186;5.790;2023-09-19T00:29:09;99227.66;;;21.39;100.00
46129;BME280;31860;45.186;5.790;2023-09-19T00:31:34;99225.88;;;21.39;100.00
46129;BME280;31860;45.186;5.790;2023-09-19T00:34:02;99228.53;;;21.39;100.00
46129;BME280;31860;45.186;5.790;2023-09-19T00:36:29;99236.50;;;21.39;100.00
46129;BME280;31860;45.186;5.790;2023-09-19T00:38:54;99235.63;;;21.39;100.00
46129;BME280;31860;45.186;5.790;2023-09-19T00:41:20;99227.66;;;21.39;100.00
46129;BME280;31860;45.186;5.790;2023-09-19T00:43:46;99231.09;;;21.41;100.00
46129;BME280;31860;45.186;5.790;2023-09-19T00:46:16;99228.53;;;21.39;100.00
46129;BME280;31860;45.186;5.790;2023-09-19T00:48:42;99229.31;;;21.41;100.00
46129;BME280;31860;45.186;5.790;2023-09-19T00:51:09;99232.97;;;21.39;100.00
46129;BME280;31860;45.186;5.790;2023-09-19T00:53:35;99235.69;;;21.37;100.00
46129;BME280;31860;45.186;5.790;2023-09-19T00:56:02;99233.84;;;21.39;100.00
46129;BME280;31860;45.186;5.790;2023-09-19T00:58:29;99233.84;;;21.39;100.00
46129;BME280;31860;45.186;5.790;2023-09-19T01:00:59;99236.56;;;21.38;100.00
46129;BME280;31860;45.186;5.790;2023-09-19T01:03:24;99224.13;;;21.38;100.00
46129;BME280;31860;45.186;5.790;2023-09-19T01:05:49;99235.63;;;21.39;100.00
46129;BME280;31860;45.186;5.790;2023-09-19T01:08:15;99220.56;;;21.39;100.00
46129;BME280;31860;45.186;5.790;2023-09-19T01:10:49;99221.28;;;21.43;100.00
46129;BME280;31860;45.186;5.790;2023-09-19T01:13:29;99218.81;;;21.38;100.00
46129;BME280;31860;45.186;5.790;2023-09-19T01:18:46;99217.22;;;21.34;100.00
46129;BME280;31860;45.186;5.790;2023-09-19T01:21:26;99218.16;;;21.33;100.00
46129;BME280;31860;45.186;5.790;2023-09-19T01:32:01;99221.69;;;21.34;100.00
46129;BME280;31860;45.186;5.790;2023-09-19T01:34:53;99219.91;;;21.34;100.00
46129;BME280;31860;45.186;5.790;2023-09-19T01:37:21;99221.59;;;21.35;100.00
46129;BME280;31860;45.186;5.790;2023-09-19T01:40:04;99227.78;;;21.36;100.00
46129;BME280;31860;45.186;5.790;2023-09-19T01:43:02;99234.81;;;21.37;100.00
46129;BME280;31860;45.186;5.790;2023-09-19T01:48:19;99234.75;;;21.38;100.00
46129;BME280;31860;45.186;5.790;2023-09-19T01:50:55;99232.91;;;21.40;100.00
46129;BME280;31860;45.186;5.790;2023-09-19T01:56:16;99217.91;;;21.39;100.00
46129;BME280;31860;45.186;5.790;2023-09-19T01:58:48;99220.63;;;21.38;100.00
46129;BME280;31860;45.186;5.790;2023-09-19T02:01:19;99219.75;;;21.37;100.00
46129;BME280;31860;45.186;5.790;2023-09-19T02:03:47;99213.63;;;21.35;100.00
46129;BME280;31860;45.186;5.790;2023-09-19T02:06:17;99205.59;;;21.37;100.00
46129;BME280;31860;45.186;5.790;2023-09-19T02:08:43;99208.16;;;21.38;100.00
46129;BME280;31860;45.186;5.790;2023-09-19T02:11:10;99213.50;;;21.38;100.00
46129;BME280;31860;45.186;5.790;2023-09-19T02:13:36;99209.84;;;21.41;100.00
46129;BME280;31860;45.186;5.790;2023-09-19T02:16:01;99216.16;;;21.38;100.00
46129;BME280;31860;45.186;5.790;2023-09-19T02:18:29;99214.44;;;21.37;100.00
46129;BME280;31860;45.186;5.790;2023-09-19T02:20:55;99220.66;;;21.36;100.00
46129;BME280;31860;45.186;5.790;2023-09-19T02:23:21;99215.41;;;21.35;100.00
46129;BME280;31860;45.186;5.790;2023-09-19T02:25:53;99212.91;;;21.32;100.00
46129;BME280;31860;45.186;5.790;2023-09-19T02:28:19;99218.28;;;21.30;100.00
46129;BME280;31860;45.186;5.790;2023-09-19T02:30:47;99221.00;;;21.29;100.00
46129;BME280;31860;45.186;5.790;2023-09-19T02:33:13;99217.59;;;21.25;100.00
46129;BME280;31860;45.186;5.790;2023-09-19T02:35:39;99209.78;;;21.22;100.00
46129;BME280;31860;45.186;5.790;2023-09-19T02:38:04;99223.06;;;21.22;100.00
46129;BME280;31860;45.186;5.790;2023-09-19T02:40:31;99221.28;;;21.23;100.00
46129;BME280;31860;45.186;5.790;2023-09-19T02:42:57;99222.19;;;21.22;100.00
46129;BME280;31860;45.186;5.790;2023-09-19T02:45:24;99220.56;;;21.19;100.00
46129;BME280;31860;45.186;5.790;2023-09-19T02:47:50;99214.47;;;21.16;100.00
46129;BME280;31860;45.186;5.790;2023-09-19T02:50:16;99223.38;;;21.15;100.00
46129;BME280;31860;45.186;5.790;2023-09-19T02:52:42;99216.41;;;21.12;100.00
46129;BME280;31860;45.186;5.790;2023-09-19T02:55:14;99219.94;;;21.13;100.00
46129;BME280;31860;45.186;5.790;2023-09-19T02:57:52;99212.91;;;21.12;100.00
46129;BME280;31860;45.186;5.790;2023-09-19T03:00:20;99219.19;;;21.09;100.00
46129;BME280;31860;45.186;5.790;2023-09-19T03:02:55;99212.13;;;21.08;100.00
46129;BME280;31860;45.186;5.790;2023-09-19T03:05:22;99206.91;;;21.07;100.00
46129;BME280;31860;45.186;5.790;2023-09-19T03:07:49;99208.75;;;21.05;100.00
46129;BME280;31860;45.186;5.790;2023-09-19T03:10:16;99211.41;;;21.05;100.00
46129;BME280;31860;45.186;5.790;2023-09-19T03:12:42;99205.25;;;21.04;100.00
46129;BME280;31860;45.186;5.790;2023-09-19T03:15:08;99214.13;;;21.03;100.00
46129;BME280;31860;45.186;5.790;2023-09-19T03:17:34;99206.25;;;21.02;100.00
46129;BME280;31860;45.186;5.790;2023-09-19T03:20:00;99212.41;;;21.02;100.00
46129;BME280;31860;45.186;5.790;2023-09-19T03:22:27;99211.53;;;21.02;100.00
46129;BME280;31860;45.186;5.790;2023-09-19T03:24:52;99208.91;;;21.02;100.00
46129;BME280;31860;45.186;5.790;2023-09-19T03:27:18;99215.13;;;21.01;100.00
46129;BME280;31860;45.186;5.790;2023-09-19T03:29:43;99217.78;;;21.01;100.00
46129;BME280;31860;45.186;5.790;2023-09-19T03:32:09;99212.34;;;21.04;100.00
46129;BME280;31860;45.186;5.790;2023-09-19T03:34:38;99214.06;;;21.05;100.00
46129;BME280;31860;45.186;5.790;2023-09-19T03:37:11;99221.97;;;21.06;100.00
46129;BME280;31860;45.186;5.790;2023-09-19T03:39:36;99220.19;;;21.07;100.00
46129;BME280;31860;45.186;5.790;2023-09-19T03:42:02;99225.50;;;21.07;100.00
46129;BME280;31860;45.186;5.790;2023-09-19T03:44:29;99226.44;;;21.06;100.00
46129;BME280;31860;45.186;5.790;2023-09-19T03:46:54;99219.31;;;21.06;100.00
46129;BME280;31860;45.186;5.790;2023-09-19T03:49:21;99225.41;;;21.08;100.00
46129;BME280;31860;45.186;5.790;2023-09-19T03:51:47;99229.91;;;21.08;100.00
46129;BME280;31860;45.186;5.790;2023-09-19T03:54:12;99225.50;;;21.07;100.00
46129;BME280;31860;45.186;5.790;2023-09-19T03:56:37;99228.22;;;21.05;100.00
46129;BME280;31860;45.186;5.790;2023-09-19T03:59:03;99237.91;;;21.06;100.00
46129;BME280;31860;45.186;5.790;2023-09-19T04:01:28;99223.78;;;21.06;100.00
46129;BME280;31860;45.186;5.790;2023-09-19T04:03:57;99228.22;;;21.05;100.00
46129;BME280;31860;45.186;5.790;2023-09-19T04:06:23;99225.56;;;21.05;100.00
46129;BME280;31860;45.186;5.790;2023-09-19T04:08:48;99227.34;;;21.05;100.00
46129;BME280;31860;45.186;5.790;2023-09-19T04:11:14;99223.97;;;21.01;100.00
46129;BME280;31860;45.186;5.790;2023-09-19T04:13:39;99226.66;;;21.00;100.00
46129;BME280;31860;45.186;5.790;2023-09-19T04:16:05;99229.38;;;20.98;100.00
46129;BME280;31860;45.186;5.790;2023-09-19T04:18:32;99235.75;;;20.94;100.00
46129;BME280;31860;45.186;5.790;2023-09-19T04:20:59;99229.63;;;20.92;100.00
46129;BME280;31860;45.186;5.790;2023-09-19T04:23:27;99229.63;;;20.92;100.00
46129;BME280;31860;45.186;5.790;2023-09-19T04:25:53;99229.63;;;20.92;100.00
46129;BME280;31860;45.186;5.790;2023-09-19T04:28:18;99235.00;;;20.91;100.00
46129;BME280;31860;45.186;5.790;2023-09-19T04:30:44;99235.84;;;20.91;100.00
46129;BME280;31860;45.186;5.790;2023-09-19T04:33:09;99233.16;;;20.93;100.00
46129;BME280;31860;45.186;5.790;2023-09-19T04:35:34;99235.81;;;20.93;100.00
46129;BME280;31860;45.186;5.790;2023-09-19T04:38:00;99233.09;;;20.94;100.00
46129;BME280;31860;45.186;5.790;2023-09-19T04:40:26;99248.16;;;20.94;100.00
46129;BME280;31860;45.186;5.790;2023-09-19T04:42:58;99245.41;;;20.95;100.00
46129;BME280;31860;45.186;5.790;2023-09-19T04:45:27;99244.59;;;20.95;100.00
46129;BME280;31860;45.186;5.790;2023-09-19T04:47:53;99250.69;;;20.97;100.00
46129;BME280;31860;45.186;5.790;2023-09-19T04:50:19;99250.69;;;20.97;100.00
46129;BME280;31860;45.186;5.790;2023-09-19T04:52:49;99251.53;;;20.97;100.00
46129;BME280;31860;45.186;5.790;2023-09-19T04:55:17;99262.09;;;21.00;100.00
46129;BME280;31860;45.186;5.790;2023-09-19T04:57:48;99259.44;;;21.00;100.00
46129;BME280;31860;45.186;5.790;2023-09-19T05:00:18;99270.06;;;21.00;100.00
46129;BME280;31860;45.186;5.790;2023-09-19T05:02:50;99270.00;;;21.02;100.00
46129;BME280;31860;45.186;5.790;2023-09-19T05:05:16;99277.03;;;21.03;100.00
46129;BME280;31860;45.186;5.790;2023-09-19T05:07:42;99269.03;;;21.03;100.00
46129;BME280;31860;45.186;5.790;2023-09-19T05:10:08;99276.97;;;21.04;100.00
46129;BME280;31860;45.186;5.790;2023-09-19T05:12:35;99277.81;;;21.05;100.00
46129;BME280;31860;45.186;5.790;2023-09-19T05:15:02;99278.56;;;21.08;100.00
46129;BME280;31860;45.186;5.790;2023-09-19T05:17:27;99276.78;;;21.09;100.00
46129;BME280;31860;45.186;5.790;2023-09-19T05:19:53;99268.72;;;21.10;100.00
46129;BME280;31860;45.186;5.790;2023-09-19T05:22:18;99274.03;;;21.10;100.00
46129;BME280;31860;45.186;5.790;2023-09-19T05:24:44;99270.59;;;21.08;100.00
46129;BME280;31860;45.186;5.790;2023-09-19T05:27:13;99275.91;;;21.08;100.00
46129;BME280;31860;45.186;5.790;2023-09-19T05:29:38;99282.03;;;21.10;100.00
46129;BME280;31860;45.186;5.790;2023-09-19T05:32:04;99292.53;;;21.13;100.00
46129;BME280;31860;45.186;5.790;2023-09-19T05:34:30;99293.34;;;21.15;100.00
46129;BME280;31860;45.186;5.790;2023-09-19T05:36:56;99296.72;;;21.19;100.00
46129;BME280;31860;45.186;5.790;2023-09-19T05:39:21;99302.97;;;21.18;100.00
46129;BME280;31860;45.186;5.790;2023-09-19T05:41:48;99299.38;;;21.19;100.00
46129;BME280;31860;45.186;5.790;2023-09-19T05:44:13;99304.56;;;21.22;100.00
46129;BME280;31860;45.186;5.790;2023-09-19T05:46:39;99301.00;;;21.23;100.00
46129;BME280;31860;45.186;5.790;2023-09-19T05:49:04;99300.13;;;21.22;100.00
46129;BME280;31860;45.186;5.790;2023-09-19T05:51:30;99302.78;;;21.22;100.00
46129;BME280;31860;45.186;5.790;2023-09-19T05:53:56;99303.66;;;21.23;100.00
46129;BME280;31860;45.186;5.790;2023-09-19T05:56:21;99309.78;;;21.25;100.00
46129;BME280;31860;45.186;5.790;2023-09-19T05:58:47;99313.28;;;21.25;100.00
46129;BME280;31860;45.186;5.790;2023-09-19T06:01:12;99317.69;;;21.26;100.00
46129;BME280;31860;45.186;5.790;2023-09-19T06:03:38;99314.06;;;21.27;100.00
46129;BME280;31860;45.186;5.790;2023-09-19T06:06:03;99314.06;;;21.27;100.00
46129;BME280;31860;45.186;5.790;2023-09-19T06:08:31;99324.63;;;21.29;100.00
46129;BME280;31860;45.186;5.790;2023-09-19T06:10:57;99317.59;;;21.28;100.00
46129;BME280;31860;45.186;5.790;2023-09-19T06:13:22;99325.59;;;21.28;100.00
46129;BME280;31860;45.186;5.790;2023-09-19T06:15:51;99334.50;;;21.27;100.00
46129;BME280;31860;45.186;5.790;2023-09-19T06:18:17;99335.28;;;21.29;100.00
46129;BME280;31860;45.186;5.790;2023-09-19T06:20:48;99340.53;;;21.30;100.00
46129;BME280;31860;45.186;5.790;2023-09-19T06:23:16;99337.88;;;21.30;100.00
46129;BME280;31860;45.186;5.790;2023-09-19T06:25:42;99332.50;;;21.32;100.00
46129;BME280;31860;45.186;5.790;2023-09-19T06:28:08;99336.84;;;21.34;100.00
46129;BME280;31860;45.186;5.790;2023-09-19T06:30:37;99335.91;;;21.35;100.00
46129;BME280;31860;45.186;5.790;2023-09-19T06:33:05;99331.47;;;21.36;100.00
46129;BME280;31860;45.186;5.790;2023-09-19T06:35:33;99333.25;;;21.35;100.00
46129;BME280;31860;45.186;5.790;2023-09-19T06:38:01;99334.13;;;21.36;100.00
46129;BME280;31860;45.186;5.790;2023-09-19T06:40:28;99338.56;;;21.35;100.00
46129;BME280;31860;45.186;5.790;2023-09-19T06:42:53;99331.47;;;21.36;100.00
46129;BME280;31860;45.186;5.790;2023-09-19T06:45:19;99342.09;;;21.36;100.00
46129;BME280;31860;45.186;5.790;2023-09-19T06:47:48;99341.16;;;21.37;100.00
46129;BME280;31860;45.186;5.790;2023-09-19T06:50:17;99336.84;;;21.34;100.00
46129;BME280;31860;45.186;5.790;2023-09-19T06:52:47;99343.00;;;21.35;100.00
46129;BME280;31860;45.186;5.790;2023-09-19T06:55:18;99343.00;;;21.35;100.00
46129;BME280;31860;45.186;5.790;2023-09-19T06:57:45;99349.19;;;21.35;100.00
46129;BME280;31860;45.186;5.790;2023-09-19T07:00:12;99344.75;;;21.36;100.00
46129;BME280;31860;45.186;5.790;2023-09-19T07:02:59;99350.00;;;21.37;100.00
46129;BME280;31860;45.186;5.790;2023-09-19T07:05:27;99354.38;;;21.38;100.00
46129;BME280;31860;45.186;5.790;2023-09-19T07:07:53;99358.78;;;21.39;100.00
46129;BME280;31860;45.186;5.790;2023-09-19T07:10:19;99354.38;;;21.38;100.00
46129;BME280;31860;45.186;5.790;2023-09-19T07:12:54;99355.16;;;21.40;100.00
46129;BME280;31860;45.186;5.790;2023-09-19T07:15:20;99353.38;;;21.41;100.00
46129;BME280;31860;45.186;5.790;2023-09-19T07:17:46;99359.56;;;21.41;100.00
46129;BME280;31860;45.186;5.790;2023-09-19T07:20:11;99355.91;;;21.44;100.00
46129;BME280;31860;45.186;5.790;2023-09-19T07:22:41;99359.44;;;21.44;100.00
46129;BME280;31860;45.186;5.790;2023-09-19T07:25:07;99356.78;;;21.44;100.00
46129;BME280;31860;45.186;5.790;2023-09-19T07:27:33;99363.88;;;21.44;100.00
46129;BME280;31860;45.186;5.790;2023-09-19T07:29:58;99363.09;;;21.42;100.00
46129;BME280;31860;45.186;5.790;2023-09-19T07:32:24;99364.88;;;21.41;100.00
46129;BME280;31860;45.186;5.790;2023-09-19T07:34:49;99361.34;;;21.41;100.00
46129;BME280;31860;45.186;5.790;2023-09-19T07:37:15;99373.75;;;21.42;100.00
46129;BME280;31860;45.186;5.790;2023-09-19T07:39:41;99363.94;;;21.42;100.00
46129;BME280;31860;45.186;5.790;2023-09-19T07:42:06;99361.28;;;21.42;100.00
46129;BME280;31860;45.186;5.790;2023-09-19T07:44:32;99360.38;;;21.43;100.00
46129;BME280;31860;45.186;5.790;2023-09-19T07:46:57;99366.53;;;21.44;100.00
46129;BME280;31860;45.186;5.790;2023-09-19T07:49:23;99361.13;;;21.47;100.00
46129;BME280;31860;45.186;5.790;2023-09-19T07:51:48;99363.78;;;21.47;100.00
46129;BME280;31860;45.186;5.790;2023-09-19T07:54:14;99360.16;;;21.48;100.00
46129;BME280;31860;45.186;5.790;2023-09-19T07:56:40;99366.44;;;21.47;100.00
46129;BME280;31860;45.186;5.790;2023-09-19T07:59:05;99371.53;;;21.51;100.00
46129;BME280;31860;45.186;5.790;2023-09-19T08:01:30;99368.88;;;21.51;100.00
46129;BME280;31860;45.186;5.790;2023-09-19T08:03:58;99374.16;;;21.53;100.00
46129;BME280;31860;45.186;5.790;2023-09-19T08:06:24;99369.69;;;21.53;100.00
46129;BME280;31860;45.186;5.790;2023-09-19T08:08:52;99368.69;;;21.56;100.00
46129;BME280;31860;45.186;5.790;2023-09-19T08:11:18;99374.75;;;21.59;100.00
46129;BME280;31860;45.186;5.790;2023-09-19T08:13:47;99367.47;;;21.64;100.00
46129;BME280;31860;45.186;5.790;2023-09-19T08:16:14;99373.38;;;21.71;100.00
46129;BME280;31860;45.186;5.790;2023-09-19T08:18:41;99369.66;;;21.75;100.00
46129;BME280;31860;45.186;5.790;2023-09-19T08:21:07;99372.19;;;21.78;100.00
46129;BME280;31860;45.186;5.790;2023-09-19T08:23:37;99373.94;;;21.79;100.00
46129;BME280;31860;45.186;5.790;2023-09-19T08:26:03;99377.50;;;21.78;100.00
46129;BME280;31860;45.186;5.790;2023-09-19T08:28:33;99376.59;;;21.79;100.00
46129;BME280;31860;45.186;5.790;2023-09-19T08:31:03;99372.09;;;21.81;100.00
46129;BME280;31860;45.186;5.790;2023-09-19T08:33:31;99370.28;;;21.82;100.00
46129;BME280;31860;45.186;5.790;2023-09-19T08:35:56;99372.03;;;21.83;100.00
46129;BME280;31860;45.186;5.790;2023-09-19T08:38:21;99382.53;;;21.86;100.00
46129;BME280;31860;45.186;5.790;2023-09-19T08:40:47;99372.69;;;21.88;100.00
46129;BME280;31860;45.186;5.790;2023-09-19T08:43:12;99368.25;;;21.88;100.00
46129;BME280;31860;45.186;5.790;2023-09-19T08:45:38;99369.84;;;21.92;100.00
46129;BME280;31860;45.186;5.790;2023-09-19T08:50:43;99369.97;;;22.09;100.00
46129;BME280;31860;45.186;5.790;2023-09-19T08:53:16;99371.28;;;22.19;100.00
46129;BME280;31860;45.186;5.790;2023-09-19T08:55:46;99367.03;;;22.35;100.00
46129;BME280;31860;45.186;5.790;2023-09-19T08:58:16;99362.94;;;22.47;100.00
46129;BME280;31860;45.186;5.790;2023-09-19T09:00:47;99362.56;;;22.56;100.00
46129;BME280;31860;45.186;5.790;2023-09-19T09:03:15;99354.38;;;22.61;100.00
46129;BME280;31860;45.186;5.790;2023-09-19T09:05:41;99359.03;;;22.74;100.00
46129;BME280;31860;45.186;5.790;2023-09-19T09:08:09;99363.97;;;22.83;100.00
46129;BME280;31860;45.186;5.790;2023-09-19T09:10:37;99363.00;;;22.84;100.00
46129;BME280;31860;45.186;5.790;2023-09-19T09:13:03;99360.50;;;23.00;100.00
46129;BME280;31860;45.186;5.790;2023-09-19T09:15:37;99358.97;;;23.31;100.00
46129;BME280;31860;45.186;5.790;2023-09-19T09:18:03;99361.75;;;23.47;100.00
46129;BME280;31860;45.186;5.790;2023-09-19T09:20:30;99355.41;;;23.67;100.00
46129;BME280;31860;45.186;5.790;2023-09-19T09:22:56;99357.16;;;23.85;100.00
46129;BME280;31860;45.186;5.790;2023-09-19T09:25:49;99357.25;;;24.17;100.00
46129;BME280;31860;45.186;5.790;2023-09-19T09:28:23;99357.84;;;24.39;100.00
46129;BME280;31860;45.186;5.790;2023-09-19T09:30:49;99347.81;;;24.60;100.00
46129;BME280;31860;45.186;5.790;2023-09-19T09:33:15;99341.75;;;24.74;100.00
46129;BME280;31860;45.186;5.790;2023-09-19T09:38:13;99346.16;;;24.90;100.00
46129;BME280;31860;45.186;5.790;2023-09-19T09:40:52;99335.88;;;24.98;100.00
46129;BME280;31860;45.186;5.790;2023-09-19T09:43:37;99333.94;;;25.02;100.00
46129;BME280;31860;45.186;5.790;2023-09-19T09:46:17;99332.88;;;25.04;100.00
46129;BME280;31860;45.186;5.790;2023-09-19T09:51:48;99338.13;;;25.06;100.00
46129;BME280;31860;45.186;5.790;2023-09-19T09:54:23;99329.84;;;25.10;100.00
46129;BME280;31860;45.186;5.790;2023-09-19T09:57:14;99328.22;;;25.08;100.00
46129;BME280;31860;45.186;5.790;2023-09-19T09:59:58;99330.19;;;25.20;100.00
46129;BME280;31860;45.186;5.790;2023-09-19T10:02:41;99326.56;;;26.11;100.00
46129;BME280;31860;45.186;5.790;2023-09-19T10:05:17;99324.78;;;27.23;98.06
46129;BME280;31860;45.186;5.790;2023-09-19T10:07:52;99319.16;;;28.06;89.87
46129;BME280;31860;45.186;5.790;2023-09-19T10:10:39;99317.75;;;29.72;69.34
46129;BME280;31860;45.186;5.790;2023-09-19T10:13:08;99320.06;;;31.98;58.92
46129;BME280;31860;45.186;5.790;2023-09-19T10:15:38;99310.94;;;33.49;50.79
46129;BME280;31860;45.186;5.790;2023-09-19T10:18:07;99307.56;;;34.61;46.95
46129;BME280;31860;45.186;5.790;2023-09-19T10:20:37;99307.84;;;35.66;45.16
46129;BME280;31860;45.186;5.790;2023-09-19T10:23:10;99301.69;;;36.68;41.41
46129;BME280;31860;45.186;5.790;2023-09-19T10:25:39;99295.06;;;37.54;40.21
46129;BME280;31860;45.186;5.790;2023-09-19T10:28:10;99287.78;;;38.35;37.31
46129;BME280;31860;45.186;5.790;2023-09-19T10:33:12;99283.00;;;39.84;36.34
46129;BME280;31860;45.186;5.790;2023-09-19T10:35:39;99280.13;;;40.37;35.26
46129;BME280;31860;45.186;5.790;2023-09-19T10:38:13;99272.69;;;41.04;32.81
46129;BME280;31860;45.186;5.790;2023-09-19T10:40:40;99274.81;;;41.59;33.94
46129;BME280;31860;45.186;5.790;2023-09-19T10:43:13;99264.38;;;42.11;31.68
46129;BME280;31860;45.186;5.790;2023-09-19T10:45:42;99259.44;;;42.56;28.41
46129;BME280;31860;45.186;5.790;2023-09-19T10:48:09;99256.16;;;43.14;32.68
46129;BME280;31860;45.186;5.790;2023-09-19T10:53:26;99252.81;;;44.05;30.75
46129;BME280;31860;45.186;5.790;2023-09-19T10:55:56;99250.84;;;44.51;28.77
46129;BME280;31860;45.186;5.790;2023-09-19T10:58:31;99236.56;;;44.87;26.98
46129;BME280;31860;45.186;5.790;2023-09-19T11:01:05;99238.78;;;45.16;28.75
46129;BME280;31860;45.186;5.790;2023-09-19T11:03:32;99238.81;;;45.54;28.02
46129;BME280;31860;45.186;5.790;2023-09-19T11:06:09;99243.31;;;45.73;24.20
46129;BME280;31860;45.186;5.790;2023-09-19T11:08:51;99233.47;;;45.83;23.70
46129;BME280;31860;45.186;5.790;2023-09-19T11:30:49;99211.59;;;47.22;23.48
46129;BME280;31860;45.186;5.790;2023-09-19T11:33:32;99204.31;;;46.91;21.85
46129;BME280;31860;45.186;5.790;2023-09-19T11:43:45;99207.22;;;43.03;26.30
46129;BME280;31860;45.186;5.790;2023-09-19T11:46:11;99200.69;;;41.59;28.04
46129;BME280;31860;45.186;5.790;2023-09-19T11:48:38;99201.22;;;40.33;29.13
46129;BME280;31860;45.186;5.790;2023-09-19T11:51:19;99198.06;;;39.47;29.46
46129;BME280;31860;45.186;5.790;2023-09-19T11:53:51;99194.44;;;38.70;31.13
46129;BME280;31860;45.186;5.790;2023-09-19T11:56:21;99199.94;;;38.00;30.55
46129;BME280;31860;45.186;5.790;2023-09-19T11:58:50;99194.63;;;37.34;32.00
46129;BME280;31860;45.186;5.790;2023-09-19T12:01:38;99183.81;;;36.58;31.73
46129;BME280;31860;45.186;5.790;2023-09-19T12:04:11;99183.84;;;35.99;33.93
46129;BME280;31860;45.186;5.790;2023-09-19T12:06:37;99180.34;;;35.46;34.30
46129;BME280;31860;45.186;5.790;2023-09-19T12:09:12;99178.34;;;34.85;34.73
46129;BME280;31860;45.186;5.790;2023-09-19T12:11:42;99180.47;;;34.37;35.61
46129;BME280;31860;45.186;5.790;2023-09-19T12:14:09;99175.59;;;33.94;36.21
46129;BME280;31860;45.186;5.790;2023-09-19T12:16:35;99178.69;;;33.53;36.68
46129;BME280;31860;45.186;5.790;2023-09-19T12:19:22;99164.56;;;33.11;36.60
46129;BME280;31860;45.186;5.790;2023-09-19T12:24:26;99165.41;;;32.43;38.02
46129;BME280;31860;45.186;5.790;2023-09-19T12:27:03;99163.88;;;32.11;37.90
46129;BME280;31860;45.186;5.790;2023-09-19T12:29:52;99164.75;;;31.91;38.02
46129;BME280;31860;45.186;5.790;2023-09-19T12:32:34;99158.94;;;31.75;37.89
46129;BME280;31860;45.186;5.790;2023-09-19T12:35:00;99158.38;;;31.71;38.80
46129;BME280;31860;45.186;5.790;2023-09-19T12:37:32;99156.19;;;31.65;38.17
46129;BME280;31860;45.186;5.790;2023-09-19T12:40:08;99157.84;;;31.56;37.93
46129;BME280;31860;45.186;5.790;2023-09-19T12:42:44;99154.75;;;31.40;38.47
46129;BME280;31860;45.186;5.790;2023-09-19T12:45:10;99150.84;;;31.33;39.36
46129;BME280;31860;45.186;5.790;2023-09-19T12:47:39;99148.94;;;31.13;39.97
46129;BME280;31860;45.186;5.790;2023-09-19T12:50:10;99150.78;;;30.92;40.02
46129;BME280;31860;45.186;5.790;2023-09-19T12:55:19;99136.38;;;30.60;40.82
46129;BME280;31860;45.186;5.790;2023-09-19T13:00:32;99137.13;;;30.40;41.60
46129;BME280;31860;45.186;5.790;2023-09-19T13:06:00;99130.06;;;30.17;41.66
46129;BME280;31860;45.186;5.790;2023-09-19T13:08:32;99129.34;;;30.04;41.58
46129;BME280;31860;45.186;5.790;2023-09-19T13:13:44;99128.47;;;29.81;42.51
46129;BME280;31860;45.186;5.790;2023-09-19T13:16:10;99130.06;;;29.72;42.63
46129;BME280;31860;45.186;5.790;2023-09-19T13:18:43;99121.94;;;29.61;43.14
46129;BME280;31860;45.186;5.790;2023-09-19T13:21:13;99123.41;;;29.54;43.45
46129;BME280;31860;45.186;5.790;2023-09-19T13:23:53;99117.88;;;29.45;44.07
46129;BME280;31860;45.186;5.790;2023-09-19T13:26:24;99117.72;;;29.35;44.46
46129;BME280;31860;45.186;5.790;2023-09-19T13:28:50;99107.56;;;29.28;44.57
46129;BME280;31860;45.186;5.790;2023-09-19T13:31:15;99104.59;;;29.20;45.14
46129;BME280;31860;45.186;5.790;2023-09-19T13:33:44;99089.13;;;29.11;45.81
46129;BME280;31860;45.186;5.790;2023-09-19T13:36:13;99095.97;;;29.04;45.80
46129;BME280;31860;45.186;5.790;2023-09-19T13:38:42;99095.56;;;28.97;45.91
46129;BME280;31860;45.186;5.790;2023-09-19T13:41:14;99089.69;;;28.92;46.18
46129;BME280;31860;45.186;5.790;2023-09-19T13:43:39;99090.91;;;28.88;46.31
46129;BME280;31860;45.186;5.790;2023-09-19T13:46:05;99091.97;;;28.85;46.52
46129;BME280;31860;45.186;5.790;2023-09-19T13:48:37;99090.59;;;28.80;46.51
46129;BME280;31860;45.186;5.790;2023-09-19T13:51:03;99090.09;;;28.75;46.66
46129;BME280;31860;45.186;5.790;2023-09-19T13:53:29;99091.56;;;28.68;46.60
46129;BME280;31860;45.186;5.790;2023-09-19T13:55:54;99088.34;;;28.63;46.88
46129;BME280;31860;45.186;5.790;2023-09-19T13:58:20;99083.19;;;28.60;47.12
46129;BME280;31860;45.186;5.790;2023-09-19T14:00:46;99085.34;;;28.55;47.05
46129;BME280;31860;45.186;5.790;2023-09-19T14:03:12;99075.06;;;28.49;46.93
46129;BME280;31860;45.186;5.790;2023-09-19T14:05:37;99071.00;;;28.43;46.96
46129;BME280;31860;45.186;5.790;2023-09-19T14:08:03;99066.06;;;28.37;47.01
46129;BME280;31860;45.186;5.790;2023-09-19T14:10:28;99066.28;;;28.34;47.71
46129;BME280;31860;45.186;5.790;2023-09-19T14:12:56;99051.59;;;28.27;47.71